Latest Weather Observations for Port Kembla Harbour

IDN60801

Issued at 8:32 pm EST Friday 3 July 2015 (issued every 30 minutes, with the page automatically refreshed every 10 minutes)

About weather observations | Map of weather stations | Latest weather observations for NSW | Other Formats
Station Details ID: 068253 Name: PORT KEMBLA NTC AWS Lat: -34.47 Lon: 150.91 Height: 0.0 m
Data from the previous 72 hours. | See also: Recent months for locations in New South Wales
Date/Time
EST
Temp
°C
App
Temp
°C
Dew
Point
Rel
Hum
%
Delta-T
°C
Wind Press
QNH
hPa
Press
MSL
hPa
Rain
since 9 am
mm
Dir
 
Spd
km/h
Gust
km/h
Spd
kts
Gust
kts
03/08:30pm 9.1 - - - - WSW 7 9 4 5 1025.1 1025.1 -
03/08:00pm 9.4 - - - - SW 7 9 4 5 1025.0 1025.0 -
03/07:30pm 9.9 - - - - W 6 7 3 4 1025.0 1025.0 -
03/07:00pm 10.3 - - - - WSW 7 9 4 5 1025.1 1025.1 -
03/06:30pm 10.5 - - - - W 9 11 5 6 1025.0 1025.0 -
03/06:00pm 12.4 - - - - S 4 7 2 4 1024.7 1024.7 -
03/05:30pm 12.5 - - - - S 6 9 3 5 1024.6 1024.6 -
03/05:00pm 12.4 - - - - S 6 11 3 6 1024.4 1024.4 -
03/04:30pm 12.8 - - - - S 7 13 4 7 1024.5 1024.5 -
03/04:00pm 13.0 - - - - SSE 7 13 4 7 1024.5 1024.5 -
03/03:30pm 13.2 - - - - SSE 9 17 5 9 1024.3 1024.3 -
03/03:00pm 13.3 - - - - S 9 20 5 11 1024.1 1024.1 -
03/02:30pm 13.6 - - - - SSE 9 19 5 10 1024.1 1024.1 -
03/02:00pm 13.4 - - - - SSE 11 20 6 11 1024.2 1024.2 -
03/01:30pm 13.7 - - - - S 7 17 4 9 1024.5 1024.5 -
03/01:00pm 13.4 - - - - SSW 7 17 4 9 1025.0 1025.0 -
03/12:30pm 13.5 - - - - SSW 9 17 5 9 1025.3 1025.3 -
03/12:00pm 13.2 - - - - SSW 13 22 7 12 1025.7 1025.7 -
03/11:30am 12.8 - - - - SW 15 26 8 14 1026.2 1026.2 -
03/11:00am 12.5 - - - - WSW 19 30 10 16 1026.4 1026.4 -
03/10:30am 11.9 - - - - WSW 22 32 12 17 1026.7 1026.7 -
03/10:00am 11.8 - - - - WSW 22 28 12 15 1026.6 1026.6 -
03/09:30am 11.6 - - - - WSW 22 28 12 15 1026.5 1026.5 -
03/09:00am 10.9 - - - - WSW 19 26 10 14 1026.2 1026.2 -
03/08:30am 10.3 - - - - W 15 22 8 12 1026.0 1026.0 -
03/08:00am 9.8 - - - - W 19 24 10 13 1025.7 1025.7 -
03/07:30am 9.2 - - - - WSW 13 17 7 9 1025.4 1025.4 -
03/07:00am 9.2 - - - - WSW 11 17 6 9 1025.2 1025.2 -
03/06:30am 9.7 - - - - WSW 15 20 8 11 1024.9 1024.9 -
03/06:00am 9.5 - - - - WSW 15 20 8 11 1024.5 1024.5 -
03/05:30am 9.8 - - - - WSW 19 24 10 13 1024.1 1024.1 -
03/05:00am 9.5 - - - - W 19 26 10 14 1024.1 1024.1 -
03/04:30am 9.9 - - - - WSW 19 26 10 14 1023.9 1023.9 -
03/04:00am 9.8 - - - - WSW 17 28 9 15 1023.7 1023.7 -
03/03:30am 9.8 - - - - WSW 20 30 11 16 1023.3 1023.3 -
03/03:00am 9.4 - - - - WSW 13 19 7 10 1023.4 1023.4 -
03/02:30am 9.9 - - - - WSW 17 24 9 13 1023.4 1023.4 -
03/02:00am 9.9 - - - - WSW 15 20 8 11 1023.4 1023.4 -
03/01:30am 9.5 - - - - WSW 17 24 9 13 1023.5 1023.5 -
03/01:00am 9.5 - - - - W 20 26 11 14 1023.5 1023.5 -
03/12:30am 10.4 - - - - W 22 28 12 15 1023.6 1023.6 -
03/12:00am 10.4 - - - - WSW 24 35 13 19 1023.5 1023.5 -
 
Date/Time
EST
Temp
°C
App
Temp
°C
Dew
Point
Rel
Hum
%
Delta-T
°C
Wind Press
QNH
hPa
Press
MSL
hPa
Rain
since 9 am
mm
Dir
 
Spd
km/h
Gust
km/h
Spd
kts
Gust
kts
02/11:30pm 10.8 - - - - WSW 26 37 14 20 1023.6 1023.6 -
02/11:00pm 11.1 - - - - WSW 22 32 12 17 1023.6 1023.6 -
02/10:30pm 11.4 - - - - WSW 24 35 13 19 1023.3 1023.3 -
02/10:00pm 11.5 - - - - WSW 22 35 12 19 1023.0 1023.0 -
02/09:30pm 11.4 - - - - WSW 22 32 12 17 1023.1 1023.1 -
02/09:00pm 11.7 - - - - WSW 22 32 12 17 1022.9 1022.9 -
02/08:30pm 11.9 - - - - WSW 19 24 10 13 1022.5 1022.5 -
02/08:00pm 12.1 - - - - WSW 24 35 13 19 1022.0 1022.0 -
02/07:30pm 12.3 - - - - WSW 24 33 13 18 1021.2 1021.2 -
02/07:00pm 12.5 - - - - WSW 24 35 13 19 1020.8 1020.8 -
02/06:30pm 12.3 - - - - SW 19 24 10 13 1020.1 1020.1 -
02/06:00pm 12.7 - - - - SW 20 30 11 16 1019.6 1019.6 -
02/05:30pm 13.0 - - - - W 33 50 18 27 1018.1 1018.1 -
02/05:00pm 13.3 - - - - W 39 50 21 27 1017.2 1017.2 -
02/04:30pm 13.5 - - - - W 37 52 20 28 1016.9 1016.9 -
02/04:00pm 13.7 - - - - W 35 50 19 27 1016.7 1016.7 -
02/03:30pm 14.3 - - - - W 35 46 19 25 1017.2 1017.2 -
02/03:00pm 14.9 - - - - W 41 52 22 28 1017.0 1017.0 -
02/02:30pm 15.1 - - - - W 37 50 20 27 1016.2 1016.2 -
02/02:00pm 15.2 - - - - W 33 48 18 26 1015.8 1015.8 -
02/01:30pm 15.3 - - - - W 39 52 21 28 1015.6 1015.6 -
02/01:02pm 15.4 - - - - W 32 50 17 27 1016.2 1016.2 -
02/01:00pm 15.5 - - - - W 32 48 17 26 1016.1 1016.1 -
02/12:30pm 15.5 - - - - W 24 41 13 22 1016.5 1016.5 -
02/12:05pm 15.3 - - - - W 28 46 15 25 1016.8 1016.8 -
02/12:00pm 15.7 - - - - WSW 24 37 13 20 1016.8 1016.8 -
02/11:30am 14.8 - - - - W 30 50 16 27 1017.3 1017.3 -
02/11:29am 14.8 - - - - W 30 50 16 27 1017.3 1017.3 -
02/11:00am 14.5 - - - - W 32 46 17 25 1017.8 1017.8 -
02/10:56am 14.4 - - - - W 28 46 15 25 1017.9 1017.9 -
02/10:30am 13.4 - - - - W 35 46 19 25 1018.4 1018.4 -
02/10:00am 13.1 - - - - W 35 48 19 26 1018.3 1018.3 -
02/09:30am 12.2 - - - - W 39 50 21 27 1018.0 1018.0 -
02/09:00am 11.6 - - - - WSW 37 48 20 26 1017.9 1017.9 -
02/08:30am 11.3 - - - - W 30 46 16 25 1018.4 1018.4 -
02/08:00am 11.2 - - - - W 24 37 13 20 1018.5 1018.5 -
02/07:30am 10.7 - - - - WNW 13 20 7 11 1018.6 1018.6 -
02/07:00am 11.0 - - - - W 17 26 9 14 1018.8 1018.8 -
02/06:30am 10.7 - - - - W 26 33 14 18 1018.3 1018.3 -
02/06:00am 10.1 - - - - W 20 28 11 15 1018.5 1018.5 -
02/05:30am 9.9 - - - - W 24 33 13 18 1018.8 1018.8 -
02/05:00am 9.7 - - - - W 20 26 11 14 1018.7 1018.7 -
02/04:30am 9.4 - - - - W 15 20 8 11 1018.9 1018.9 -
02/04:00am 9.3 - - - - W 20 32 11 17 1019.0 1019.0 -
02/03:30am 9.2 - - - - W 19 24 10 13 1019.5 1019.5 -
02/03:00am 9.2 - - - - W 9 13 5 7 1019.8 1019.8 -
02/02:30am 9.6 - - - - WSW 13 17 7 9 1019.6 1019.6 -
02/02:00am 10.1 - - - - WNW 13 19 7 10 1019.8 1019.8 -
02/01:30am 10.0 - - - - WNW 22 37 12 20 1019.9 1019.9 -
02/01:00am 10.3 - - - - WNW 24 33 13 18 1020.1 1020.1 -
02/12:30am 9.8 - - - - WNW 19 30 10 16 1020.5 1020.5 -
02/12:00am 10.0 - - - - W 24 33 13 18 1020.9 1020.9 -
 
Date/Time
EST
Temp
°C
App
Temp
°C
Dew
Point
Rel
Hum
%
Delta-T
°C
Wind Press
QNH
hPa
Press
MSL
hPa
Rain
since 9 am
mm
Dir
 
Spd
km/h
Gust
km/h
Spd
kts
Gust
kts
01/11:30pm 9.7 - - - - WNW 17 22 9 12 1021.1 1021.1 -
01/11:00pm 9.7 - - - - W 19 22 10 12 1021.6 1021.6 -
01/10:30pm 10.1 - - - - W 26 35 14 19 1022.0 1022.0 -
01/10:00pm 10.3 - - - - W 22 30 12 16 1021.7 1021.7 -
01/09:30pm 10.5 - - - - W 19 24 10 13 1022.0 1022.0 -
01/09:00pm 11.3 - - - - W 17 20 9 11 1022.0 1022.0 -
01/08:30pm 11.5 - - - - W 15 17 8 9 1022.6 1022.6 -
01/08:00pm 11.9 - - - - W 17 20 9 11 1022.8 1022.8 -
01/07:30pm 11.9 - - - - W 9 13 5 7 1022.6 1022.6 -
01/07:00pm 12.8 - - - - W 9 11 5 6 1022.5 1022.5 -
01/06:30pm 12.9 - - - - W 9 13 5 7 1022.4 1022.4 -
01/06:00pm 13.0 - - - - W 9 9 5 5 1022.2 1022.2 -
01/05:30pm 13.3 - - - - WSW 7 9 4 5 1022.1 1022.1 -
01/05:00pm 14.2 - - - - SSW 4 6 2 3 1021.9 1021.9 -
01/04:30pm 14.7 - - - - S 2 4 1 2 1021.8 1021.8 -
01/04:00pm 14.5 - - - - S 4 7 2 4 1022.1 1022.1 -
01/03:30pm 14.5 - - - - SSE 6 9 3 5 1022.1 1022.1 -
01/03:00pm 14.6 - - - - SSE 7 13 4 7 1022.2 1022.2 -
01/02:30pm 14.7 - - - - SE 7 17 4 9 1022.5 1022.5 -
01/02:00pm 14.6 - - - - SSE 7 15 4 8 1022.7 1022.7 -
01/01:30pm 14.6 - - - - SE 11 15 6 8 1023.0 1023.0 -
01/01:00pm 14.6 - - - - SSE 11 17 6 9 1023.5 1023.5 -
01/12:30pm 14.3 - - - - SE 7 13 4 7 1023.8 1023.8 -
01/12:00pm 13.8 - - - - SE 6 11 3 6 1024.3 1024.3 -
01/11:30am 13.5 - - - - WSW 6 13 3 7 1024.8 1024.8 -
01/11:00am 12.9 - - - - WSW 11 17 6 9 1025.2 1025.2 -
01/10:30am 12.3 - - - - WSW 15 22 8 12 1025.5 1025.5 -
01/10:00am 12.0 - - - - WSW 19 24 10 13 1025.7 1025.7 -
01/09:30am 10.7 - - - - W 20 30 11 16 1025.8 1025.8 -
01/09:00am 10.0 - - - - W 24 33 13 18 1025.7 1025.7 -
01/08:30am 9.6 - - - - W 22 28 12 15 1025.7 1025.7 -
01/08:00am 9.8 - - - - WSW 24 37 13 20 1025.7 1025.7 -
01/07:30am 10.0 - - - - W 26 35 14 19 1025.7 1025.7 -
01/07:00am 10.1 - - - - WSW 26 32 14 17 1025.6 1025.6 -

Other Formats:

Comma delimited format used in spreadsheet applications
http://www.bom.gov.au/fwo/IDN60801/IDN60801.95745.axf

JavaScript Object Notation format (JSON) in row-major order
http://www.bom.gov.au/fwo/IDN60801/IDN60801.95745.json